Time;durP1;ratioP1;P1;durP2;ratioP2;P2;SDS_P1;SDS_P2;PMS_P1;PMS_P2;Temp;Humidity;BMP_temperature;BMP_pressure;BME280_temperature;BME280_humidity;BME280_pressure;Samples;Min_cycle;Max_cycle;Signal;HPM_P1;HPM_P2
2023/08/18 00:05:14;;;;;;;8.40;7.25;;;;;;;23.90;83.67;99090.78;7173368;40;20318;31
2023/08/18 00:10:49;;;;;;;7.13;6.50;;;;;;;23.88;84.03;99090.19;7174356;40;20247;31
2023/08/18 00:16:22;;;;;;;8.45;7.55;;;;;;;23.98;84.89;99081.22;7172060;40;20269;31
2023/08/18 00:26:45;;;;;;;9.40;7.40;;;;;;;24.01;83.83;99072.44;7245113;40;21175;31
2023/08/18 00:32:17;;;;;;;8.45;7.55;;;;;;;23.99;84.48;99069.97;7240116;40;20280;31
2023/08/18 00:37:39;;;;;;;11.70;8.72;;;;;;;23.95;83.87;99063.31;7243152;40;21207;31
2023/08/18 00:42:58;;;;;;;11.12;8.93;;;;;;;23.92;85.27;99062.97;7254210;40;20249;31
2023/08/18 00:48:31;;;;;;;8.73;7.77;;;;;;;23.78;85.22;99070.78;7203339;40;20768;31
2023/08/18 00:54:06;;;;;;;10.10;9.10;;;;;;;23.73;85.20;99066.06;7226641;40;20258;31
2023/08/18 00:59:24;;;;;;;10.45;9.23;;;;;;;23.75;84.91;99074.88;7216736;40;20356;31
2023/08/18 01:05:12;;;;;;;9.85;8.95;;;;;;;23.70;85.73;99074.81;7241173;39;20276;31
2023/08/18 01:10:44;;;;;;;9.08;8.28;;;;;;;23.55;85.42;99066.34;7222012;40;20277;31
2023/08/18 01:16:16;;;;;;;10.55;8.23;;;;;;;23.48;84.65;99070.34;7174261;40;20355;31
2023/08/18 01:21:47;;;;;;;10.10;8.90;;;;;;;23.53;85.20;99052.00;7004315;40;20240;31
2023/08/18 01:27:23;;;;;;;9.55;8.65;;;;;;;23.38;84.77;99070.19;7172524;40;20359;31
2023/08/18 01:32:58;;;;;;;13.75;10.20;;;;;;;23.45;85.52;99066.19;7252380;40;20280;31
2023/08/18 01:38:33;;;;;;;9.60;8.70;;;;;;;23.37;86.30;99066.59;7189519;40;20243;31
2023/08/18 01:44:06;;;;;;;10.77;9.68;;;;;;;23.21;86.35;99057.25;7185639;40;21229;31
2023/08/18 01:49:25;;;;;;;10.00;9.00;;;;;;;23.23;86.88;99062.53;7161593;40;20330;31
2023/08/18 01:55:00;;;;;;;11.45;9.50;;;;;;;23.17;87.43;99060.78;7208855;40;20344;31
2023/08/18 02:06:34;;;;;;;10.30;9.05;;;;;;;23.03;87.44;99049.31;7270691;39;20265;31
2023/08/18 02:17:13;;;;;;;10.97;8.50;;;;;;;22.99;88.54;99036.31;7289136;39;20280;31
2023/08/18 02:22:49;;;;;;;10.85;8.75;;;;;;;22.96;86.81;99040.37;7313714;39;20286;31
2023/08/18 02:28:24;;;;;;;10.70;8.90;;;;;;;22.97;87.31;99035.72;7344991;39;20253;31
2023/08/18 02:33:44;;;;;;;9.25;8.10;;;;;;;23.08;86.25;99032.87;7269947;40;20319;31
2023/08/18 02:39:18;;;;;;;12.18;9.10;;;;;;;22.88;86.85;99025.13;7273653;40;20452;31
2023/08/18 02:44:53;;;;;;;9.85;8.07;;;;;;;22.75;86.54;99024.63;7240362;40;20257;31
2023/08/18 02:50:25;;;;;;;9.88;8.68;;;;;;;22.74;86.07;99031.22;7200704;40;20278;31
2023/08/18 03:01:02;;;;;;;9.70;8.00;;;;;;;22.79;85.82;99032.13;7173835;40;21069;31
2023/08/18 03:11:38;;;;;;;9.95;8.68;;;;;;;22.73;84.06;99035.06;7175955;40;21105;31
2023/08/18 03:22:15;;;;;;;9.23;7.90;;;;;;;22.47;84.50;99030.97;7273826;39;21221;31
2023/08/18 03:32:55;;;;;;;10.13;7.43;;;;;;;22.37;84.37;99037.16;7270585;39;20262;31
2023/08/18 03:38:30;;;;;;;8.70;7.80;;;;;;;22.18;83.76;99034.84;7256391;40;20245;31
2023/08/18 03:43:50;;;;;;;8.65;7.60;;;;;;;22.18;84.19;99037.59;7230155;40;20237;31
2023/08/18 03:49:22;;;;;;;8.55;7.75;;;;;;;22.21;83.28;99037.09;7236019;40;20347;31
2023/08/18 03:54:58;;;;;;;8.73;7.83;;;;;;;22.05;83.15;99029.66;7196003;40;20261;31
2023/08/18 04:00:30;;;;;;;7.70;7.00;;;;;;;;;;7223371;40;20358;31
2023/08/18 04:06:02;;;;;;;8.38;7.50;;;;;;;21.87;84.08;99027.88;7196269;40;20386;31
2023/08/18 04:11:38;;;;;;;13.40;7.75;;;;;;;21.69;84.20;99025.31;7206848;40;20238;31
2023/08/18 04:16:55;;;;;;;10.20;9.10;;;;;;;21.61;85.73;99031.19;7213203;40;20251;31
2023/08/18 04:22:30;;;;;;;9.55;8.27;;;;;;;21.53;85.96;99033.22;7223367;40;20316;31
2023/08/18 04:28:03;;;;;;;10.05;9.05;;;;;;;21.57;85.77;99039.91;7213565;40;20354;31
2023/08/18 04:33:20;;;;;;;11.48;8.48;;;;;;;21.57;85.88;99039.91;7208824;40;20263;31
2023/08/18 04:38:55;;;;;;;10.18;8.44;;;;;;;21.66;85.91;99050.50;7194708;40;20250;31
2023/08/18 04:44:28;;;;;;;9.82;8.55;;;;;;;21.53;85.95;99055.19;7205191;40;20347;31
2023/08/18 04:49:45;;;;;;;9.90;7.85;;;;;;;21.59;85.77;99045.97;7183967;40;20265;31
2023/08/18 04:55:20;;;;;;;9.48;8.48;;;;;;;21.44;85.77;99056.63;7196171;40;20354;31
2023/08/18 05:00:56;;;;;;;9.82;8.45;;;;;;;21.39;85.63;99055.66;7144717;40;20254;31
2023/08/18 05:06:13;;;;;;;9.27;8.20;;;;;;;21.42;86.62;99060.66;7202641;40;20323;31
2023/08/18 05:11:45;;;;;;;9.27;8.20;;;;;;;21.45;86.18;99050.06;7254127;40;20276;31
2023/08/18 05:17:18;;;;;;;9.82;8.70;;;;;;;21.44;86.98;99042.91;7209169;40;20348;31
2023/08/18 05:22:35;;;;;;;10.10;7.90;;;;;;;21.44;87.18;99048.37;7194530;40;20272;31
2023/08/18 05:33:28;;;;;;;10.02;7.70;;;;;;;21.52;86.49;99050.75;7270605;40;21303;31
2023/08/18 05:38:48;;;;;;;8.48;6.55;;;;;;;21.72;87.02;99061.31;7226182;40;20348;31
2023/08/18 05:44:08;;;;;;;8.00;6.97;;;;;;;21.83;86.59;99062.38;7215275;40;20257;31
2023/08/18 05:49:44;;;;;;;12.00;7.82;;;;;;;21.77;87.27;99061.44;7256351;40;20341;31
2023/08/18 05:55:04;;;;;;;10.13;8.00;;;;;;;21.78;87.70;99059.53;7243847;39;20437;31
2023/08/18 06:00:36;;;;;;;9.00;7.65;;;;;;;21.79;89.02;99066.69;7275984;40;20240;31
2023/08/18 06:06:09;;;;;;;8.68;7.60;;;;;;;21.83;88.98;99074.19;7253781;40;20342;31
2023/08/18 06:16:48;;;;;;;8.70;7.60;;;;;;;21.96;88.24;99076.69;7245371;40;20251;31
2023/08/18 06:22:21;;;;;;;8.40;6.80;;;;;;;22.14;87.45;99085.84;7190672;40;20296;31
2023/08/18 06:27:41;;;;;;;8.02;6.37;;;;;;;22.31;87.27;99098.56;7213286;40;20253;31
2023/08/18 06:33:11;;;;;;;11.60;6.60;;;;;;;22.40;86.56;99107.22;7208194;40;20359;31
2023/08/18 06:38:45;;;;;;;8.65;5.50;;;;;;;22.50;85.11;99109.34;7211031;40;20281;31
2023/08/18 06:49:06;;;;;;;6.60;5.28;;;;;;;22.78;83.29;99109.34;7194597;40;21167;31
2023/08/18 06:59:44;;;;;;;7.35;5.47;;;;;;;22.99;82.83;99105.88;7319282;39;21168;31
2023/08/18 07:10:21;;;;;;;10.07;5.20;;;;;;;23.33;80.37;99118.53;7316611;39;20265;31
2023/08/18 07:15:54;;;;;;;5.90;5.17;;;;;;;23.42;80.21;99120.88;7272384;40;20369;31
2023/08/18 07:26:17;;;;;;;6.00;4.50;;;;;;;23.55;78.29;99126.06;7274337;40;20257;31
2023/08/18 07:36:58;;;;;;;6.03;4.30;;;;;;;23.84;76.40;99143.25;7303886;39;20309;31
2023/08/18 07:42:33;;;;;;;7.05;4.30;;;;;;;24.07;75.55;99135.59;7271780;40;20276;31
2023/08/18 07:48:05;;;;;;;5.68;4.53;;;;;;;24.31;74.88;99138.16;7212333;40;20353;31
2023/08/18 07:58:42;;;;;;;7.37;4.47;;;;;;;24.56;73.75;99135.69;7161994;40;21055;31
2023/08/18 08:04:03;;;;;;;5.70;4.45;;;;;;;24.68;73.18;99139.13;7191662;40;20257;31
2023/08/18 08:09:38;;;;;;;6.75;4.30;;;;;;;24.91;72.80;99135.25;7253173;40;20244;31
2023/08/18 08:15:14;;;;;;;6.95;4.60;;;;;;;25.11;71.94;99146.47;7215979;40;20421;31
2023/08/18 08:20:35;;;;;;;5.34;4.04;;;;;;;25.33;71.40;99143.59;7166736;40;20258;31
2023/08/18 08:26:09;;;;;;;6.05;4.70;;;;;;;25.45;71.11;99158.09;7194556;40;20254;31
2023/08/18 08:31:46;;;;;;;5.43;4.65;;;;;;;25.72;70.36;99150.56;7205669;40;20238;31
2023/08/18 08:37:04;;;;;;;6.90;4.45;;;;;;;26.02;70.18;99153.50;7211253;40;20273;31
2023/08/18 08:42:35;;;;;;;6.53;4.60;;;;;;;26.11;69.45;99140.00;7238123;40;20335;31
2023/08/18 08:48:08;;;;;;;5.62;4.28;;;;;;;26.20;68.29;99134.78;7032440;40;20234;31
2023/08/18 08:53:45;;;;;;;6.70;4.72;;;;;;;26.37;67.90;99143.78;7234080;40;20265;31
2023/08/18 08:59:16;;;;;;;5.80;4.20;;;;;;;26.55;67.60;99145.22;7212490;40;21134;31
2023/08/18 09:04:49;;;;;;;8.23;4.37;;;;;;;26.77;66.76;99156.88;7214580;40;20239;31
2023/08/18 09:10:25;;;;;;;5.75;4.05;;;;;;;26.90;66.17;99146.16;7188581;40;20273;31
2023/08/18 09:15:57;;;;;;;4.60;4.15;;;;;;;27.07;65.57;99132.06;7163152;40;20455;31
2023/08/18 09:21:33;;;;;;;5.50;4.15;;;;;;;27.34;63.46;99148.41;7182079;40;20289;31
2023/08/18 09:26:50;;;;;;;7.07;3.90;;;;;;;27.47;64.20;99147.03;7160762;40;20273;31
2023/08/18 09:37:30;;;;;;;6.20;3.40;;;;;;;27.82;61.47;99138.69;7182543;40;21135;31
2023/08/18 09:43:05;;;;;;;6.78;3.90;;;;;;;27.89;60.33;99144.78;7238296;40;20229;31
2023/08/18 09:48:37;;;;;;;6.60;3.80;;;;;;;27.99;60.20;99136.44;7263176;40;21192;31
2023/08/18 09:54:10;;;;;;;6.95;3.75;;;;;;;28.12;58.83;99138.66;7276437;40;20252;31
2023/08/18 09:59:42;;;;;;;5.53;3.40;;;;;;;28.17;60.98;99137.81;7213715;40;20263;31
2023/08/18 10:05:14;;;;;;;5.46;3.68;;;;;;;28.39;59.03;99132.69;7204136;40;20344;31
2023/08/18 10:10:47;;;;;;;7.06;3.46;;;;;;;28.43;59.82;99127.44;7162161;40;20270;31
2023/08/18 10:16:34;;;;;;;8.87;4.00;;;;;;;28.52;57.92;99126.53;7213457;40;22398;31
2023/08/18 10:27:14;;;;;;;4.53;3.47;;;;;;;28.94;55.43;99119.66;7222461;40;21197;31
2023/08/18 10:37:50;;;;;;;4.60;3.70;;;;;;;29.04;56.47;99109.31;7240255;40;20680;31
2023/08/18 10:48:26;;;;;;;6.70;3.57;;;;;;;29.27;54.99;99109.69;7279385;40;21196;31
2023/08/18 10:53:43;;;;;;;6.80;3.90;;;;;;;29.30;54.61;99098.88;7236200;40;20245;31
2023/08/18 10:59:04;;;;;;;5.25;3.50;;;;;;;29.56;55.63;99096.69;7250903;40;20244;31
2023/08/18 11:04:41;;;;;;;4.82;3.65;;;;;;;29.80;54.48;99096.69;7254542;40;20563;31
2023/08/18 11:10:13;;;;;;;5.75;3.40;;;;;;;30.08;54.34;99097.81;7231711;40;20347;31
2023/08/18 11:15:45;;;;;;;4.50;3.62;;;;;;;30.17;53.73;99085.72;7243507;40;20241;31
2023/08/18 11:21:18;;;;;;;3.85;3.22;;;;;;;30.09;51.60;99082.78;7225976;40;20269;31
2023/08/18 11:26:53;;;;;;;6.13;3.30;;;;;;;30.17;53.22;99085.72;7201570;40;20279;31
2023/08/18 11:32:13;;;;;;;6.90;3.50;;;;;;;30.26;52.80;99083.94;7232857;40;20366;31
2023/08/18 11:37:49;;;;;;;5.97;3.28;;;;;;;30.31;50.76;99075.53;7209311;40;20866;31
2023/08/18 11:48:26;;;;;;;5.05;3.10;;;;;;;30.52;52.86;99080.84;7262681;39;20295;31
2023/08/18 11:53:59;;;;;;;6.85;3.45;;;;;;;30.71;51.67;99074.16;7256700;40;20261;31
2023/08/18 11:59:34;;;;;;;5.62;3.20;;;;;;;30.89;52.36;99066.94;7230352;40;20452;31
2023/08/18 12:05:09;;;;;;;10.02;3.45;;;;;;;31.13;51.94;99066.84;7235562;40;20333;31
2023/08/18 12:10:48;;;;;;;4.30;3.10;;;;;;;31.37;50.97;99058.34;7195818;40;20445;31
2023/08/18 12:21:10;;;;;;;5.24;3.18;;;;;;;31.39;49.79;99047.72;7253147;40;20309;31
2023/08/18 12:26:46;;;;;;;5.35;3.17;;;;;;;31.44;50.40;99047.63;7221402;40;22243;31
2023/08/18 12:32:07;;;;;;;7.30;3.50;;;;;;;31.69;51.14;99049.94;7194863;40;20265;31
2023/08/18 12:42:47;;;;;;;5.20;3.00;;;;;;;31.89;49.67;99043.16;7258686;40;20294;31
2023/08/18 12:48:08;;;;;;;8.68;3.15;;;;;;;32.02;50.09;99053.47;7226991;40;20235;31
2023/08/18 12:58:48;;;;;;;5.82;3.12;;;;;;;32.21;47.25;99039.47;7312705;39;20280;31
2023/08/18 13:04:21;;;;;;;5.54;3.10;;;;;;;32.22;48.79;99041.91;7230125;40;20281;31
2023/08/18 13:09:41;;;;;;;5.10;3.23;;;;;;;32.25;46.92;99035.72;7169857;40;20297;31
2023/08/18 13:15:17;;;;;;;5.20;3.45;;;;;;;32.37;47.55;99029.59;7192921;40;20239;31
2023/08/18 13:20:49;;;;;;;6.22;3.00;;;;;;;32.52;48.65;99030.06;7209787;40;20241;31
2023/08/18 13:26:07;;;;;;;8.34;3.00;;;;;;;32.67;46.96;99023.34;7212644;40;20253;31
2023/08/18 13:31:37;;;;;;;4.12;2.90;;;;;;;32.66;46.85;99018.87;7215070;40;20370;31
2023/08/18 13:36:56;;;;;;;7.05;3.33;;;;;;;32.73;47.20;99019.28;7170271;40;20263;31
2023/08/18 13:42:14;;;;;;;4.47;3.03;;;;;;;32.73;47.42;99021.25;7189698;40;20246;31
2023/08/18 13:47:46;;;;;;;5.22;2.90;;;;;;;32.74;47.15;99008.91;7214448;40;20271;31
2023/08/18 13:53:04;;;;;;;5.75;2.85;;;;;;;32.80;46.77;99007.66;7214745;40;20310;31
2023/08/18 13:58:35;;;;;;;5.80;2.85;;;;;;;32.88;46.20;99009.69;7242996;40;20416;31
2023/08/18 14:04:08;;;;;;;4.82;2.70;;;;;;;32.84;46.49;99008.69;7200942;40;20425;31
2023/08/18 14:09:40;;;;;;;5.44;2.78;;;;;;;32.92;45.72;99003.16;7203447;40;20257;31
2023/08/18 14:15:16;;;;;;;7.23;2.83;;;;;;;33.03;44.27;99000.94;7221923;40;20258;31
2023/08/18 14:20:50;;;;;;;6.00;2.55;;;;;;;33.06;45.22;98989.94;7235448;40;20257;31
2023/08/18 14:26:20;;;;;;;5.05;3.00;;;;;;;32.97;45.30;98991.03;7255628;40;20487;31
2023/08/18 14:37:02;;;;;;;5.12;2.82;;;;;;;32.89;44.56;98984.25;7206855;40;20269;31
2023/08/18 14:47:40;;;;;;;3.73;2.70;;;;;;;32.80;44.47;98977.78;7260684;40;20650;31
2023/08/18 14:58:21;;;;;;;7.60;2.90;;;;;;;32.84;44.11;98969.59;7227438;40;20276;31
2023/08/18 15:09:00;;;;;;;5.60;3.10;;;;;;;32.97;44.00;98963.09;7261413;40;20272;31
2023/08/18 15:14:36;;;;;;;3.97;2.60;;;;;;;32.89;43.54;98964.69;7276568;39;20266;31
2023/08/18 15:25:15;;;;;;;6.50;2.78;;;;;;;33.03;44.33;98957.06;7274476;40;20268;31
2023/08/18 15:30:48;;;;;;;6.43;2.67;;;;;;;32.99;43.43;98952.44;7294735;40;20270;31
2023/08/18 15:36:05;;;;;;;6.55;2.85;;;;;;;33.05;43.16;98951.97;7305679;39;20252;31
2023/08/18 15:41:38;;;;;;;4.00;2.33;;;;;;;33.11;42.66;98941.50;7312594;39;20532;31
2023/08/18 15:47:15;;;;;;;7.68;2.67;;;;;;;33.07;41.87;98940.50;7224438;40;20325;31
2023/08/18 15:52:32;;;;;;;5.75;2.78;;;;;;;32.98;43.99;98939.63;7222728;40;20317;31
2023/08/18 15:57:49;;;;;;;7.70;2.50;;;;;;;32.83;44.62;98934.41;7247775;40;20256;31
2023/08/18 16:03:22;;;;;;;4.00;2.75;;;;;;;32.95;45.25;98920.72;7070686;40;21348;31
2023/08/18 16:08:39;;;;;;;6.20;2.90;;;;;;;32.86;45.03;98925.41;7262260;40;20245;31
2023/08/18 16:19:22;;;;;;;5.22;2.97;;;;;;;32.51;43.27;98924.31;7239612;40;20291;31
2023/08/18 16:29:41;;;;;;;5.53;2.60;;;;;;;32.42;46.71;98926.22;7265609;40;20280;31
2023/08/18 16:35:14;;;;;;;4.15;2.50;;;;;;;32.29;46.63;98932.69;7234008;40;20316;31
2023/08/18 16:40:49;;;;;;;5.85;2.95;;;;;;;32.12;47.86;98928.59;7214966;40;20260;31
2023/08/18 16:46:06;;;;;;;4.20;2.45;;;;;;;32.05;47.50;98939.31;7195093;40;20273;31
2023/08/18 16:51:39;;;;;;;7.25;2.55;;;;;;;31.96;49.02;98934.78;7172840;40;20258;31
2023/08/18 17:02:18;;;;;;;5.14;2.92;;;;;;;31.71;48.12;98941.75;7173132;40;20281;31
2023/08/18 17:12:55;;;;;;;7.65;2.75;;;;;;;31.54;50.32;98933.19;7261384;40;20375;31
2023/08/18 17:23:35;;;;;;;5.45;2.75;;;;;;;31.21;51.96;98933.25;7244456;40;20931;31
2023/08/18 17:29:08;;;;;;;6.18;2.83;;;;;;;30.96;53.57;98925.34;7199624;40;20253;31
2023/08/18 17:34:40;;;;;;;4.98;3.10;;;;;;;30.83;54.04;98926.16;7244406;40;20275;31
2023/08/18 17:40:00;;;;;;;6.83;2.97;;;;;;;30.67;54.10;98914.44;7233982;40;20273;31
2023/08/18 17:45:20;;;;;;;8.40;3.22;;;;;;;30.64;54.62;98922.59;7198471;40;20474;31
2023/08/18 17:50:51;;;;;;;6.03;3.00;;;;;;;30.43;55.75;98908.16;7176592;40;22282;31
2023/08/18 17:56:26;;;;;;;8.65;6.15;;;;;;;30.25;55.46;98909.84;7235079;40;20311;31
2023/08/18 18:02:01;;;;;;;7.75;3.25;;;;;;;30.19;55.46;98910.25;7275997;40;20906;31
2023/08/18 18:07:34;;;;;;;10.82;3.35;;;;;;;30.05;56.85;98906.56;7191566;40;20265;31
2023/08/18 18:13:06;;;;;;;6.08;3.36;;;;;;;29.91;57.58;98904.53;7136843;40;20251;31
2023/08/18 18:18:41;;;;;;;7.40;3.90;;;;;;;29.69;58.80;98911.75;7164408;40;20247;31
2023/08/18 18:24:14;;;;;;;5.75;2.95;;;;;;;29.46;58.41;98914.25;7139870;40;20248;31
2023/08/18 18:29:49;;;;;;;4.83;3.10;;;;;;;29.30;58.94;98920.31;7119715;40;20382;31
2023/08/18 18:35:07;;;;;;;4.74;3.58;;;;;;;29.05;58.99;98924.13;7165968;40;20265;31
2023/08/18 18:40:42;;;;;;;6.55;3.75;;;;;;;28.70;59.89;98930.88;7161644;40;20246;31
2023/08/18 18:45:58;;;;;;;8.00;3.50;;;;;;;28.60;60.55;98922.62;7213157;40;20250;31
2023/08/18 18:51:19;;;;;;;9.47;3.57;;;;;;;28.40;60.01;98918.06;7198770;40;20269;31
2023/08/18 18:56:50;;;;;;;5.20;3.50;;;;;;;28.19;61.81;98919.31;7248423;40;20259;31
2023/08/18 19:02:07;;;;;;;5.93;3.87;;;;;;;27.93;61.95;98923.34;7277577;40;20264;31
2023/08/18 19:07:24;;;;;;;9.00;3.60;;;;;;;27.86;62.28;98923.69;7229273;40;20348;31
2023/08/18 19:13:00;;;;;;;5.20;3.40;;;;;;;27.70;61.85;98922.91;7220590;40;20320;31
2023/08/18 19:18:32;;;;;;;5.35;3.40;;;;;;;27.50;63.00;98930.50;7234250;40;20242;31
2023/08/18 19:24:05;;;;;;;5.50;3.30;;;;;;;27.15;63.68;98929.47;7238965;40;20821;31
2023/08/18 19:29:41;;;;;;;7.22;3.15;;;;;;;27.01;63.95;98931.16;7174465;40;20427;31
2023/08/18 19:35:15;;;;;;;7.40;3.10;;;;;;;26.96;63.06;98931.19;7239619;40;20256;31
2023/08/18 19:40:49;;;;;;;6.37;3.47;;;;;;;26.86;62.78;98940.31;7234725;40;20241;31
2023/08/18 19:46:22;;;;;;;8.50;4.05;;;;;;;26.67;63.84;98933.69;7222903;40;20356;31
2023/08/18 19:51:40;;;;;;;7.56;3.40;;;;;;;26.50;63.18;98940.59;7194228;40;20250;31
2023/08/18 19:57:14;;;;;;;4.25;2.95;;;;;;;26.27;64.55;98942.78;7212721;40;20246;31
2023/08/18 20:02:50;;;;;;;6.90;3.00;;;;;;;26.13;64.42;98943.56;7231488;40;20245;31
2023/08/18 20:08:11;;;;;;;5.15;3.20;;;;;;;26.12;64.17;98955.72;7260609;40;20299;31
2023/08/18 20:13:47;;;;;;;6.15;3.20;;;;;;;25.92;65.29;98949.06;7299564;39;20608;31
2023/08/18 20:19:18;;;;;;;6.55;3.33;;;;;;;25.75;65.21;98950.38;7267648;40;20272;31
2023/08/18 20:24:53;;;;;;;4.18;2.72;;;;;;;25.75;64.18;98942.09;7213526;40;20297;31
2023/08/18 20:30:24;;;;;;;7.57;2.90;;;;;;;25.77;64.49;98951.75;7203338;40;20281;31
2023/08/18 20:41:08;;;;;;;7.18;3.08;;;;;;;25.53;65.39;98954.19;7221650;40;20348;31
2023/08/18 20:51:29;;;;;;;7.53;2.90;;;;;;;25.36;65.24;98941.63;7212848;40;21221;31
2023/08/18 21:02:06;;;;;;;7.10;2.90;;;;;;;25.40;65.11;98937.25;7281472;39;20989;31
2023/08/18 21:12:28;;;;;;;7.95;2.62;;;;;;;25.44;63.78;98935.59;7259186;40;21162;31
2023/08/18 21:18:01;;;;;;;5.35;2.40;;;;;;;25.56;61.29;98934.31;7275149;39;21065;31
2023/08/18 21:28:37;;;;;;;4.35;2.40;;;;;;;25.63;61.15;98941.47;7333940;39;21090;31
2023/08/18 21:39:15;;;;;;;7.40;3.15;;;;;;;25.56;62.64;98933.47;7266967;40;20451;31
2023/08/18 21:49:40;;;;;;;4.85;2.80;;;;;;;25.54;61.91;98946.69;7242959;39;20370;31
2023/08/18 22:00:16;;;;;;;8.77;2.90;;;;;;;25.38;62.08;98948.53;7302307;39;21163;31
2023/08/18 22:10:37;;;;;;;6.22;2.90;;;;;;;25.43;61.89;98951.31;7250833;40;21147;31
2023/08/18 22:21:15;;;;;;;8.20;2.90;;;;;;;25.35;62.97;98945.50;7257562;40;21136;31
2023/08/18 22:31:36;;;;;;;5.50;2.70;;;;;;;25.41;62.70;98944.41;7272179;40;21115;31
2023/08/18 22:42:17;;;;;;;5.10;3.05;;;;;;;25.38;63.52;98944.94;7273883;40;20283;31
2023/08/18 22:47:38;;;;;;;5.55;2.50;;;;;;;25.33;63.73;98944.91;7272654;40;20335;31
2023/08/18 22:53:13;;;;;;;5.05;2.80;;;;;;;25.27;65.12;98943.25;7252947;40;20272;31
2023/08/18 22:58:49;;;;;;;5.30;2.83;;;;;;;25.13;65.25;98932.69;7213740;40;20441;31
2023/08/18 23:04:09;;;;;;;5.05;2.70;;;;;;;24.96;66.77;98939.47;7211582;40;20256;31
2023/08/18 23:09:44;;;;;;;3.35;2.55;;;;;;;24.83;65.97;98943.50;7246051;40;20241;31
2023/08/18 23:15:21;;;;;;;6.20;2.85;;;;;;;25.02;65.57;98946.66;7218117;40;20319;31
2023/08/18 23:20:41;;;;;;;8.55;2.85;;;;;;;25.03;65.72;98943.66;7179046;40;20345;31
2023/08/18 23:26:16;;;;;;;7.10;3.00;;;;;;;24.97;66.00;98947.47;7179690;40;20439;31
2023/08/18 23:31:52;;;;;;;5.63;2.73;;;;;;;24.85;66.59;98945.97;6969486;40;20239;31
2023/08/18 23:37:12;;;;;;;6.78;3.50;;;;;;;24.89;65.32;98947.97;7166975;40;20379;31
2023/08/18 23:42:32;;;;;;;4.45;2.40;;;;;;;24.80;66.25;98943.19;7205961;40;20245;31
2023/08/18 23:48:06;;;;;;;5.95;2.58;;;;;;;24.90;65.68;98944.13;7301662;39;20507;31
2023/08/18 23:53:26;;;;;;;5.95;2.65;;;;;;;25.07;65.88;98947.53;7238106;40;20254;31
